Time;durP1;ratioP1;P1;durP2;ratioP2;P2;SDS_P1;SDS_P2;PMS_P1;PMS_P2;Temp;Humidity;BMP_temperature;BMP_pressure;BME280_temperature;BME280_humidity;BME280_pressure;Samples;Min_cycle;Max_cycle;Signal;HPM_P1;HPM_P2
2024/01/06 00:00:29;;;;;;;3.53;1.27;;;;;;;3.23;100.00;96087.81;4988059;28;20426;-63
2024/01/06 00:02:55;;;;;;;3.00;0.90;;;;;;;3.23;100.00;96085.94;4984711;28;20043;-63
2024/01/06 00:05:22;;;;;;;10.20;1.80;;;;;;;3.23;100.00;96083.28;4955924;28;20461;-63
2024/01/06 00:07:49;;;;;;;3.17;1.20;;;;;;;3.22;100.00;96075.47;4970618;28;20121;-62
2024/01/06 00:10:15;;;;;;;2.45;0.98;;;;;;;3.22;100.00;96081.66;4985274;28;20060;-62
2024/01/06 00:12:44;;;;;;;6.50;1.40;;;;;;;3.22;100.00;96086.19;4985825;28;20046;-63
2024/01/06 00:15:11;;;;;;;4.70;1.33;;;;;;;3.19;100.00;96078.63;4981755;28;20042;-63
2024/01/06 00:17:37;;;;;;;2.35;1.10;;;;;;;3.17;100.00;96089.56;4987273;28;20050;-63
2024/01/06 00:20:05;;;;;;;3.08;1.17;;;;;;;3.14;100.00;96083.88;4986463;28;20284;-63
2024/01/06 00:22:32;;;;;;;2.97;1.00;;;;;;;3.14;100.00;96086.56;4980088;28;20058;-63
2024/01/06 00:24:58;;;;;;;4.07;1.55;;;;;;;3.10;100.00;96086.22;4988763;28;20089;-62
2024/01/06 00:27:25;;;;;;;3.15;1.08;;;;;;;3.09;100.00;96082.72;4981305;28;20530;-63
2024/01/06 00:29:51;;;;;;;3.63;1.15;;;;;;;3.05;100.00;96078.88;4985252;28;20179;-63
2024/01/06 00:32:18;;;;;;;1.70;0.70;;;;;;;3.06;100.00;96090.41;4975583;28;20061;-62
2024/01/06 00:34:44;;;;;;;2.85;0.90;;;;;;;3.00;100.00;96086.81;4984617;28;20046;-62
2024/01/06 00:37:11;;;;;;;4.15;1.08;;;;;;;2.93;100.00;96086.94;4984184;28;20030;-63
2024/01/06 00:39:37;;;;;;;4.72;1.15;;;;;;;2.90;100.00;96091.94;4984198;28;20530;-62
2024/01/06 00:42:04;;;;;;;4.57;1.20;;;;;;;2.85;100.00;96089.97;4986213;28;20038;-63
2024/01/06 00:44:31;;;;;;;4.20;0.85;;;;;;;2.84;100.00;96086.47;4985649;28;20108;-62
2024/01/06 00:46:57;;;;;;;3.70;1.20;;;;;;;2.88;100.00;96094.03;4985158;28;20041;-63
2024/01/06 00:49:24;;;;;;;4.50;1.30;;;;;;;2.86;100.00;96092.41;4981317;28;20053;-62
2024/01/06 00:51:51;;;;;;;5.80;1.10;;;;;;;2.85;100.00;96098.78;4981552;28;20268;-62
2024/01/06 00:54:17;;;;;;;2.97;1.10;;;;;;;2.83;100.00;96105.41;4981589;28;20030;-62
2024/01/06 00:56:44;;;;;;;4.72;1.50;;;;;;;2.80;100.00;96108.56;4981356;28;20098;-62
2024/01/06 00:59:10;;;;;;;4.35;1.13;;;;;;;2.78;100.00;96106.13;4991927;28;20038;-63
2024/01/06 01:01:37;;;;;;;3.65;1.13;;;;;;;2.78;100.00;96113.31;4991805;28;20046;-62
2024/01/06 01:04:04;;;;;;;3.47;1.10;;;;;;;2.74;100.00;96113.00;4981678;28;20046;-63
2024/01/06 01:06:31;;;;;;;5.43;0.90;;;;;;;2.70;100.00;96117.97;4967476;28;20061;-63
2024/01/06 01:08:57;;;;;;;5.43;1.30;;;;;;;2.67;100.00;96118.47;4977272;28;20070;-63
2024/01/06 01:11:24;;;;;;;7.07;1.20;;;;;;;2.67;100.00;96126.47;4983638;28;20042;-63
2024/01/06 01:13:51;;;;;;;4.20;1.20;;;;;;;2.64;100.00;96132.28;4990164;28;20057;-63
2024/01/06 01:16:17;;;;;;;4.10;2.00;;;;;;;2.53;100.00;96135.75;4985454;28;20043;-63
2024/01/06 01:18:44;;;;;;;3.75;1.23;;;;;;;2.52;100.00;96137.63;4981937;28;20514;-63
2024/01/06 01:21:11;;;;;;;7.60;1.30;;;;;;;2.52;100.00;96139.47;4985830;28;20054;-62
2024/01/06 01:23:37;;;;;;;3.45;1.45;;;;;;;2.53;100.00;96136.56;4983573;28;20050;-63
2024/01/06 01:26:04;;;;;;;3.17;1.00;;;;;;;2.50;100.00;96138.91;4977027;28;20312;-63
2024/01/06 01:28:31;;;;;;;6.93;1.58;;;;;;;2.44;100.00;96133.41;4982407;28;20035;-62
2024/01/06 01:30:57;;;;;;;3.03;1.00;;;;;;;2.43;100.00;96141.69;4983783;28;20058;-62
2024/01/06 01:33:25;;;;;;;5.50;1.70;;;;;;;2.34;100.00;96150.03;4984312;28;20066;-62
2024/01/06 01:35:51;;;;;;;5.13;1.50;;;;;;;2.29;100.00;96157.09;4981020;28;20053;-62
2024/01/06 01:38:18;;;;;;;4.05;1.38;;;;;;;2.22;100.00;96154.53;4985970;28;20057;-62
2024/01/06 01:40:44;;;;;;;4.25;1.60;;;;;;;2.23;100.00;96168.69;4983980;28;20043;-63
2024/01/06 01:43:21;;;;;;;3.88;1.30;;;;;;;2.21;100.00;96159.03;4980424;28;20050;-63
2024/01/06 01:45:52;;;;;;;2.92;1.10;;;;;;;2.23;100.00;96158.81;4986674;28;20038;-63
2024/01/06 01:48:23;;;;;;;7.20;1.45;;;;;;;2.27;100.00;96167.19;4990193;28;20048;-62
2024/01/06 01:50:52;;;;;;;8.05;1.58;;;;;;;2.34;100.00;96166.06;4984914;28;20629;-63
2024/01/06 01:53:19;;;;;;;2.40;1.10;;;;;;;2.43;100.00;96173.75;4988029;28;20125;-62
2024/01/06 01:55:47;;;;;;;5.70;1.50;;;;;;;2.49;100.00;96169.31;4981021;28;20045;-63
2024/01/06 01:58:15;;;;;;;3.67;1.00;;;;;;;2.48;100.00;96168.53;4990639;28;20035;-63
2024/01/06 02:00:42;;;;;;;6.40;2.13;;;;;;;2.47;100.00;96175.72;4987669;28;20444;-62
2024/01/06 02:03:10;;;;;;;4.95;1.00;;;;;;;2.50;100.00;96178.97;4979863;28;20047;-62
2024/01/06 02:05:38;;;;;;;2.92;1.35;;;;;;;2.55;100.00;96187.13;4985877;28;20125;-62
2024/01/06 02:08:05;;;;;;;7.53;1.67;;;;;;;2.54;100.00;96185.50;4983198;28;20070;-62
2024/01/06 02:10:32;;;;;;;3.78;1.40;;;;;;;2.43;100.00;96179.09;4989944;28;20054;-62
2024/01/06 02:13:08;;;;;;;2.88;1.00;;;;;;;2.40;100.00;96172.31;4984694;28;20084;-62
2024/01/06 02:15:34;;;;;;;3.92;1.27;;;;;;;2.42;100.00;96178.25;4980170;28;20050;-62
2024/01/06 02:18:01;;;;;;;8.02;1.77;;;;;;;2.44;100.00;96180.72;4978841;28;20054;-62
2024/01/06 02:20:30;;;;;;;6.30;1.80;;;;;;;2.44;100.00;96183.38;4979275;28;20050;-63
2024/01/06 02:22:58;;;;;;;7.03;1.73;;;;;;;2.42;100.00;96186.28;4954033;28;20572;-63
2024/01/06 02:25:25;;;;;;;6.32;1.20;;;;;;;2.47;100.00;96185.59;4977643;28;20050;-63
2024/01/06 02:27:51;;;;;;;4.85;1.35;;;;;;;2.51;100.00;96183.28;4981002;28;20430;-63
2024/01/06 02:30:18;;;;;;;4.30;1.17;;;;;;;2.57;100.00;96191.19;4986375;28;20043;-63
2024/01/06 02:32:44;;;;;;;3.92;1.13;;;;;;;2.61;100.00;96196.88;4981492;28;20049;-63
2024/01/06 02:35:11;;;;;;;3.72;1.05;;;;;;;2.68;100.00;96192.25;4987715;28;20050;-63
2024/01/06 02:37:38;;;;;;;2.67;1.13;;;;;;;2.69;100.00;96191.19;4985617;28;20117;-63
2024/01/06 02:40:05;;;;;;;3.65;0.80;;;;;;;2.78;100.00;96193.53;4990549;28;20042;-62
2024/01/06 02:42:31;;;;;;;3.70;1.20;;;;;;;2.81;100.00;96195.75;4976507;28;20133;-63
2024/01/06 02:44:58;;;;;;;2.53;1.02;;;;;;;2.80;100.00;96194.91;4981065;28;20031;-62
2024/01/06 02:47:24;;;;;;;7.18;1.30;;;;;;;2.73;100.00;96195.03;4990251;28;20046;-63
2024/01/06 02:49:51;;;;;;;3.58;1.20;;;;;;;2.62;100.00;96198.53;4985723;28;20046;-62
2024/01/06 02:52:17;;;;;;;2.85;1.38;;;;;;;2.53;100.00;96198.03;4990547;28;20498;-62
2024/01/06 02:54:44;;;;;;;2.53;0.82;;;;;;;2.48;100.00;96197.91;4986448;28;20067;-62
2024/01/06 02:57:13;;;;;;;3.70;1.23;;;;;;;2.44;100.00;96197.53;4990055;28;20115;-63
2024/01/06 02:59:40;;;;;;;2.50;1.10;;;;;;;2.34;100.00;96202.63;4989948;28;20051;-62
2024/01/06 03:02:07;;;;;;;6.70;1.48;;;;;;;2.26;100.00;96203.78;4987792;28;20046;-62
2024/01/06 03:04:33;;;;;;;3.88;1.23;;;;;;;2.16;100.00;96204.31;4988703;28;20057;-62
2024/01/06 03:07:00;;;;;;;5.55;1.50;;;;;;;2.05;100.00;96202.41;4988109;28;20065;-62
2024/01/06 03:09:26;;;;;;;4.03;1.60;;;;;;;1.99;100.00;96203.31;4982316;28;20574;-62
2024/01/06 03:11:53;;;;;;;5.15;1.73;;;;;;;1.90;100.00;96200.97;4982879;28;20058;-62
2024/01/06 03:14:19;;;;;;;6.82;1.75;;;;;;;1.80;100.00;96203.34;4984015;28;20129;-62
2024/01/06 03:16:46;;;;;;;4.78;1.77;;;;;;;1.77;100.00;96204.59;4978751;28;20387;-63
2024/01/06 03:19:12;;;;;;;4.03;1.10;;;;;;;1.77;100.00;96206.47;4982339;28;20038;-62
2024/01/06 03:21:39;;;;;;;2.25;1.10;;;;;;;1.81;100.00;96205.00;4984823;28;20065;-62
2024/01/06 03:24:07;;;;;;;3.72;1.40;;;;;;;1.86;100.00;96199.78;4962304;28;20526;-62
2024/01/06 03:26:33;;;;;;;2.88;1.13;;;;;;;1.92;100.00;96203.41;4943546;28;20160;-62
2024/01/06 03:29:02;;;;;;;1.65;0.85;;;;;;;1.95;100.00;96200.28;4958093;28;20050;-62
2024/01/06 03:31:29;;;;;;;3.35;1.15;;;;;;;1.98;100.00;96201.69;4983630;28;20466;-62
2024/01/06 03:33:56;;;;;;;1.67;0.90;;;;;;;2.00;100.00;96199.59;4986444;28;20041;-62
2024/01/06 03:36:23;;;;;;;3.03;1.50;;;;;;;1.93;100.00;96203.19;4982467;28;20054;-62
2024/01/06 03:38:49;;;;;;;3.20;1.50;;;;;;;1.92;100.00;96196.19;4984233;28;20042;-62
2024/01/06 03:41:16;;;;;;;2.78;1.25;;;;;;;1.91;100.00;96197.25;4975551;28;20047;-62
2024/01/06 03:43:42;;;;;;;4.30;1.10;;;;;;;1.91;100.00;96191.91;4972296;28;20105;-62
2024/01/06 03:46:09;;;;;;;3.13;1.13;;;;;;;1.92;100.00;96193.53;4979799;28;20125;-62
2024/01/06 03:48:35;;;;;;;3.13;1.33;;;;;;;1.90;100.00;96202.81;4978196;28;20112;-62
2024/01/06 03:51:03;;;;;;;4.30;1.55;;;;;;;1.88;100.00;96195.03;4978053;28;20045;-62
2024/01/06 03:53:29;;;;;;;7.15;1.50;;;;;;;1.90;100.00;96192.13;4986041;28;20054;-62
2024/01/06 03:55:56;;;;;;;4.88;1.45;;;;;;;1.92;100.00;96192.75;4984740;28;20101;-62
2024/01/06 03:58:22;;;;;;;8.32;2.30;;;;;;;1.94;100.00;96186.13;4981544;28;20046;-62
2024/01/06 04:00:49;;;;;;;4.15;1.30;;;;;;;1.99;100.00;96189.97;4976957;28;20042;-62
2024/01/06 04:03:16;;;;;;;8.43;1.45;;;;;;;2.03;100.00;96193.81;4984896;28;20038;-62
2024/01/06 04:05:42;;;;;;;5.53;1.10;;;;;;;2.01;100.00;96190.56;4981815;28;20105;-63
2024/01/06 04:08:09;;;;;;;4.15;1.17;;;;;;;2.05;100.00;96191.72;4989996;28;20077;-62
2024/01/06 04:10:35;;;;;;;4.53;1.33;;;;;;;2.08;100.00;96192.13;4979911;28;20408;-62
2024/01/06 04:13:02;;;;;;;3.72;1.05;;;;;;;2.12;100.00;96196.97;4980802;28;20096;-63
2024/01/06 04:15:28;;;;;;;7.53;1.20;;;;;;;2.14;100.00;96203.72;4984460;28;20039;-62
2024/01/06 04:17:55;;;;;;;4.30;1.30;;;;;;;2.14;100.00;96203.72;4987488;28;20038;-63
2024/01/06 04:20:22;;;;;;;1.92;1.33;;;;;;;2.12;100.00;96202.31;4979739;28;20046;-62
2024/01/06 04:22:48;;;;;;;3.35;1.00;;;;;;;2.09;100.00;96203.59;4987514;28;20160;-62
2024/01/06 04:25:15;;;;;;;5.00;1.55;;;;;;;2.05;100.00;96205.91;4985410;28;20039;-62
2024/01/06 04:27:42;;;;;;;2.15;1.13;;;;;;;2.08;100.00;96212.66;4986088;28;20049;-62
2024/01/06 04:30:09;;;;;;;6.25;1.88;;;;;;;2.09;100.00;96211.59;4983495;28;20042;-62
2024/01/06 04:32:35;;;;;;;2.95;0.90;;;;;;;2.09;100.00;96208.94;4979440;28;20133;-63
2024/01/06 04:35:02;;;;;;;5.25;1.17;;;;;;;2.07;100.00;96208.34;4989965;28;20439;-62
2024/01/06 04:37:29;;;;;;;3.28;1.02;;;;;;;2.07;100.00;96203.00;4988908;28;20046;-62
2024/01/06 04:39:56;;;;;;;2.17;1.10;;;;;;;2.06;100.00;96212.03;4976583;28;20045;-62
2024/01/06 04:42:22;;;;;;;2.25;0.90;;;;;;;2.02;100.00;96208.19;4985851;28;20042;-62
2024/01/06 04:44:50;;;;;;;3.47;1.00;;;;;;;1.98;100.00;96210.50;4986730;28;20102;-62
2024/01/06 04:47:17;;;;;;;2.70;1.08;;;;;;;1.87;100.00;96208.59;4986062;28;20066;-63
2024/01/06 04:49:44;;;;;;;3.95;1.08;;;;;;;1.73;100.00;96211.44;4987428;28;20472;-62
2024/01/06 04:52:11;;;;;;;2.30;1.23;;;;;;;1.74;100.00;96213.09;4987258;28;20353;-62
2024/01/06 04:54:38;;;;;;;3.33;1.00;;;;;;;1.83;100.00;96213.56;4984352;28;20043;-62
2024/01/06 04:57:04;;;;;;;5.63;1.20;;;;;;;1.86;100.00;96218.47;4984023;28;20092;-63
2024/01/06 04:59:31;;;;;;;9.50;1.30;;;;;;;1.91;100.00;96226.63;4978952;28;20842;-62
2024/01/06 05:01:58;;;;;;;6.97;1.50;;;;;;;2.02;100.00;96229.56;4959421;28;20136;-62
2024/01/06 05:04:25;;;;;;;4.47;1.42;;;;;;;2.11;100.00;96230.91;4982442;28;20049;-63
2024/01/06 05:06:52;;;;;;;3.05;1.30;;;;;;;2.27;100.00;96233.97;4981200;28;20042;-62
2024/01/06 05:09:19;;;;;;;4.70;1.50;;;;;;;2.47;100.00;96231.81;4979205;28;20514;-63
2024/01/06 05:11:46;;;;;;;5.50;1.73;;;;;;;2.53;100.00;96234.63;4947218;28;20557;-63
2024/01/06 05:14:12;;;;;;;8.02;1.67;;;;;;;2.53;100.00;96229.28;4985415;28;20047;-62
2024/01/06 05:16:39;;;;;;;5.05;1.58;;;;;;;2.53;100.00;96232.75;4984886;28;20457;-63
2024/01/06 05:19:05;;;;;;;8.23;1.73;;;;;;;2.55;100.00;96229.88;4978232;28;20450;-62
2024/01/06 05:21:32;;;;;;;4.10;1.50;;;;;;;2.57;100.00;96233.94;4984154;28;20046;-62
2024/01/06 05:23:59;;;;;;;4.40;1.70;;;;;;;2.60;100.00;96230.81;4982109;28;20073;-62
2024/01/06 05:26:26;;;;;;;4.85;1.63;;;;;;;2.63;100.00;96242.91;4976568;28;20042;-63
2024/01/06 05:28:52;;;;;;;6.45;2.00;;;;;;;2.66;100.00;96238.97;4988513;28;20096;-63
2024/01/06 05:31:19;;;;;;;3.70;1.70;;;;;;;2.66;100.00;96238.97;4984009;28;20114;-63
2024/01/06 05:33:46;;;;;;;5.05;1.73;;;;;;;2.65;100.00;96238.13;4985585;28;20329;-62
2024/01/06 05:36:12;;;;;;;4.53;1.67;;;;;;;2.67;100.00;96238.72;4993111;28;20466;-62
2024/01/06 05:38:39;;;;;;;5.20;2.10;;;;;;;2.66;100.00;96239.78;4986476;28;20066;-62
2024/01/06 05:41:05;;;;;;;5.47;1.77;;;;;;;2.66;100.00;96238.97;4991708;28;20409;-63
2024/01/06 05:43:32;;;;;;;5.97;2.25;;;;;;;2.62;100.00;96241.28;4989665;28;20133;-63
2024/01/06 05:45:58;;;;;;;5.25;1.70;;;;;;;2.63;100.00;96248.25;4981880;28;20206;-62
2024/01/06 05:48:25;;;;;;;5.20;1.98;;;;;;;2.62;100.00;96237.78;4989526;28;20030;-62
2024/01/06 05:50:52;;;;;;;7.50;1.98;;;;;;;2.61;100.00;96236.97;4989159;28;20053;-62
2024/01/06 05:53:18;;;;;;;3.38;1.50;;;;;;;2.65;100.00;96248.03;4983505;28;20462;-62
2024/01/06 05:55:45;;;;;;;4.60;1.98;;;;;;;2.68;100.00;96248.38;4983104;28;20402;-62
2024/01/06 05:58:12;;;;;;;3.15;1.88;;;;;;;2.71;100.00;96252.44;4982744;28;20050;-62
2024/01/06 06:00:38;;;;;;;5.28;2.17;;;;;;;2.69;100.00;96254.53;4979705;28;20340;-62
2024/01/06 06:03:05;;;;;;;7.38;2.30;;;;;;;2.64;100.00;96257.91;4986069;28;20130;-62
2024/01/06 06:05:31;;;;;;;2.92;1.60;;;;;;;2.72;100.00;96267.44;4984109;28;20556;-62
2024/01/06 06:07:58;;;;;;;4.85;1.58;;;;;;;2.66;100.00;96271.84;4986382;28;20096;-62
2024/01/06 06:10:30;;;;;;;2.65;1.48;;;;;;;2.69;100.00;96282.06;4983473;28;20042;-63
2024/01/06 06:12:56;;;;;;;3.38;1.63;;;;;;;2.77;100.00;96272.09;4987043;28;20056;-62
2024/01/06 06:15:23;;;;;;;3.13;1.40;;;;;;;2.77;100.00;96277.44;4984688;28;20580;-62
2024/01/06 06:17:49;;;;;;;2.88;1.38;;;;;;;2.81;100.00;96274.09;4987378;28;20506;-62
2024/01/06 06:20:16;;;;;;;2.38;1.30;;;;;;;2.83;100.00;96282.69;4986715;28;20426;-62
2024/01/06 06:22:43;;;;;;;2.10;1.10;;;;;;;2.85;100.00;96290.50;4980447;28;20266;-62
2024/01/06 06:25:09;;;;;;;5.20;1.45;;;;;;;2.77;100.00;96305.00;4974489;28;20038;-62
2024/01/06 06:27:36;;;;;;;4.60;1.48;;;;;;;2.84;100.00;96299.56;4987638;28;20420;-62
2024/01/06 06:30:03;;;;;;;3.45;1.85;;;;;;;2.81;100.00;96302.69;4980365;28;20108;-62
2024/01/06 06:32:30;;;;;;;7.63;2.78;;;;;;;2.84;100.00;96302.25;4983486;28;20314;-64
2024/01/06 06:34:57;;;;;;;7.80;2.92;;;;;;;2.82;100.00;96312.31;4984411;28;20046;-64
2024/01/06 06:37:23;;;;;;;3.40;1.50;;;;;;;2.81;100.00;96313.38;4982332;28;20057;-65
2024/01/06 06:39:50;;;;;;;6.05;1.88;;;;;;;2.79;100.00;96310.94;4984571;28;20042;-64
2024/01/06 06:42:16;;;;;;;3.10;1.60;;;;;;;2.78;100.00;96303.13;4986076;28;20705;-64
2024/01/06 06:44:43;;;;;;;2.80;1.42;;;;;;;2.78;100.00;96308.47;4977653;28;20457;-64
2024/01/06 06:47:09;;;;;;;4.57;1.50;;;;;;;2.86;100.00;96311.66;4982058;28;20049;-64
2024/01/06 06:49:36;;;;;;;3.88;1.42;;;;;;;2.94;100.00;96312.34;4981024;28;20046;-64
2024/01/06 06:52:03;;;;;;;4.68;1.27;;;;;;;2.99;100.00;96318.66;4984355;28;20112;-64
2024/01/06 06:54:30;;;;;;;2.35;0.90;;;;;;;3.03;100.00;96326.22;4985311;28;20340;-64
2024/01/06 06:56:57;;;;;;;1.75;1.10;;;;;;;2.96;100.00;96326.31;4984602;28;20700;-64
2024/01/06 06:59:24;;;;;;;3.03;1.30;;;;;;;2.99;100.00;96329.34;4946314;28;20038;-66
2024/01/06 07:01:50;;;;;;;3.88;1.55;;;;;;;2.96;100.00;96329.81;4956516;28;20687;-63
2024/01/06 07:04:17;;;;;;;3.17;1.33;;;;;;;3.05;100.00;96330.28;4983797;28;20149;-63
2024/01/06 07:06:43;;;;;;;3.00;1.30;;;;;;;3.01;100.00;96337.13;4984511;28;20425;-63
2024/01/06 07:09:10;;;;;;;3.83;1.40;;;;;;;2.99;100.00;96333.91;4977210;28;20077;-66
2024/01/06 07:11:36;;;;;;;2.75;1.60;;;;;;;2.96;100.00;96331.66;4981424;28;20046;-64
2024/01/06 07:14:03;;;;;;;4.63;2.00;;;;;;;2.93;100.00;96338.28;4977316;28;20497;-64
2024/01/06 07:16:30;;;;;;;4.50;1.60;;;;;;;2.98;100.00;96338.41;4954099;28;20062;-64
2024/01/06 07:18:57;;;;;;;5.50;2.00;;;;;;;3.06;100.00;96336.47;4977425;28;20045;-64
2024/01/06 07:21:24;;;;;;;7.45;2.42;;;;;;;3.02;100.00;96346.78;4974989;28;20050;-64
2024/01/06 07:23:50;;;;;;;4.68;1.67;;;;;;;3.14;100.00;96349.50;4981142;28;20468;-64
2024/01/06 07:26:17;;;;;;;3.33;1.50;;;;;;;3.06;100.00;96344.50;4984703;28;20713;-64
2024/01/06 07:28:44;;;;;;;4.10;1.50;;;;;;;2.98;100.00;96341.09;4979469;28;20653;-64
2024/01/06 07:31:10;;;;;;;3.97;1.23;;;;;;;3.02;100.00;96351.34;4978175;28;20038;-64
2024/01/06 07:33:37;;;;;;;1.90;1.02;;;;;;;2.98;100.00;96348.28;4980407;28;20808;-64
2024/01/06 07:36:04;;;;;;;5.38;1.60;;;;;;;3.03;100.00;96347.63;4984675;28;20042;-64
2024/01/06 07:38:31;;;;;;;3.30;1.50;;;;;;;3.05;100.00;96348.19;4985338;28;20186;-64
2024/01/06 07:40:58;;;;;;;3.33;1.20;;;;;;;3.03;100.00;96352.97;4977790;28;20481;-64
2024/01/06 07:43:24;;;;;;;3.47;1.63;;;;;;;3.04;100.00;96357.25;4984808;28;20046;-64
2024/01/06 07:45:51;;;;;;;5.47;1.60;;;;;;;3.10;100.00;96354.47;4981724;28;20141;-64
2024/01/06 07:48:17;;;;;;;4.30;1.65;;;;;;;3.15;100.00;96358.31;4972510;28;20054;-64
2024/01/06 07:50:45;;;;;;;3.00;1.40;;;;;;;3.19;100.00;96362.19;4979448;28;20494;-64
2024/01/06 07:53:13;;;;;;;3.40;1.60;;;;;;;3.20;100.00;96366.47;4974236;28;20522;-64
2024/01/06 07:55:40;;;;;;;4.82;1.75;;;;;;;3.23;100.00;96366.84;4971718;28;20046;-64
2024/01/06 07:58:07;;;;;;;4.00;2.13;;;;;;;3.26;100.00;96370.94;4958960;28;20223;-66
2024/01/06 08:00:33;;;;;;;4.57;2.10;;;;;;;3.30;100.00;96366.75;4970148;28;20062;-65
2024/01/06 08:03:00;;;;;;;4.45;1.92;;;;;;;3.30;100.00;96369.41;4949172;28;20047;-62
2024/01/06 08:05:27;;;;;;;6.40;2.22;;;;;;;3.36;100.00;96370.38;4956475;28;20502;-62
2024/01/06 08:07:53;;;;;;;4.82;2.25;;;;;;;3.37;100.00;96372.81;4947945;28;20162;-66
2024/01/06 08:10:20;;;;;;;3.35;1.60;;;;;;;3.42;100.00;96376.66;4953623;28;20044;-61
2024/01/06 08:12:48;;;;;;;2.30;1.30;;;;;;;3.42;100.00;96369.44;4949124;28;20069;-61
2024/01/06 08:15:14;;;;;;;2.45;1.27;;;;;;;3.47;100.00;96374.09;4968256;28;20466;-66
2024/01/06 08:17:42;;;;;;;3.58;2.05;;;;;;;3.47;100.00;96377.56;4976786;28;20452;-67
2024/01/06 08:20:09;;;;;;;2.45;1.30;;;;;;;3.50;100.00;96381.66;4984547;28;20035;-65
2024/01/06 08:22:36;;;;;;;2.17;1.15;;;;;;;3.48;100.00;96381.91;4972524;28;20138;-65
2024/01/06 08:25:03;;;;;;;2.33;1.00;;;;;;;3.52;100.00;96390.28;4980347;28;20801;-63
2024/01/06 08:27:29;;;;;;;2.30;1.15;;;;;;;3.56;100.00;96380.75;4981295;28;20046;-63
2024/01/06 08:29:56;;;;;;;1.80;1.00;;;;;;;3.55;100.00;96391.69;4978417;28;20125;-64
2024/01/06 08:32:22;;;;;;;4.63;2.53;;;;;;;3.66;100.00;96392.72;4982137;28;20042;-63
2024/01/06 08:34:49;;;;;;;1.75;0.80;;;;;;;3.71;100.00;96398.19;4975535;28;20109;-63
2024/01/06 08:37:16;;;;;;;5.63;2.80;;;;;;;3.63;100.00;96394.00;4978396;28;20498;-63
2024/01/06 08:39:42;;;;;;;3.60;1.38;;;;;;;3.59;100.00;96395.53;4978838;28;20652;-63
2024/01/06 08:42:09;;;;;;;3.30;1.20;;;;;;;3.53;100.00;96393.78;4968737;28;20134;-63
2024/01/06 08:44:35;;;;;;;4.88;1.75;;;;;;;3.51;100.00;96405.50;4972164;28;20116;-63
2024/01/06 08:47:02;;;;;;;3.50;1.00;;;;;;;3.49;100.00;96407.63;4978296;28;20625;-63
2024/01/06 08:49:29;;;;;;;3.30;1.00;;;;;;;3.53;100.00;96405.28;4979763;28;20061;-63
2024/01/06 08:51:56;;;;;;;15.07;7.57;;;;;;;3.55;100.00;96411.25;4980179;28;20548;-63
2024/01/06 08:54:22;;;;;;;5.75;1.80;;;;;;;3.56;100.00;96404.84;4975831;28;20084;-63
2024/01/06 08:56:49;;;;;;;6.00;2.13;;;;;;;3.60;100.00;96408.69;4975132;28;20125;-63
2024/01/06 08:59:15;;;;;;;3.90;1.98;;;;;;;3.70;100.00;96409.97;4979262;28;20030;-63
2024/01/06 09:01:42;;;;;;;3.17;1.00;;;;;;;3.74;100.00;96411.13;4976901;28;20038;-63
2024/01/06 09:04:11;;;;;;;1.83;0.82;;;;;;;3.78;100.00;96409.63;4981570;28;20061;-63
2024/01/06 09:06:38;;;;;;;4.63;1.83;;;;;;;3.76;100.00;96409.84;4980061;28;20589;-65
2024/01/06 09:09:05;;;;;;;2.20;1.20;;;;;;;3.82;100.00;96418.81;4970942;28;20046;-63
2024/01/06 09:11:32;;;;;;;4.30;1.33;;;;;;;3.87;100.00;96407.44;4954581;28;20133;-63
2024/01/06 09:13:59;;;;;;;3.30;1.25;;;;;;;3.94;100.00;96413.47;4980916;28;20506;-63
2024/01/06 09:16:25;;;;;;;2.63;1.40;;;;;;;4.02;100.00;96409.63;4984498;28;20049;-63
2024/01/06 09:18:52;;;;;;;1.85;0.65;;;;;;;4.03;100.00;96405.91;4975556;28;20053;-63
2024/01/06 09:21:19;;;;;;;1.55;0.80;;;;;;;3.96;100.00;96416.75;4983432;28;20125;-63
2024/01/06 09:23:45;;;;;;;1.80;0.80;;;;;;;4.02;100.00;96410.44;4982642;28;20072;-63
2024/01/06 09:26:12;;;;;;;2.28;0.95;;;;;;;3.92;100.00;96415.56;4983412;28;20050;-64
2024/01/06 09:28:39;;;;;;;1.83;0.80;;;;;;;4.09;100.00;96420.22;4982580;28;20050;-63
2024/01/06 09:31:05;;;;;;;2.25;1.00;;;;;;;4.11;100.00;96418.13;4970773;28;20046;-63
2024/01/06 09:33:33;;;;;;;5.82;2.20;;;;;;;4.10;100.00;96424.53;4986444;28;20049;-63
2024/01/06 09:36:01;;;;;;;5.65;2.10;;;;;;;4.00;100.00;96428.63;4977504;28;20505;-63
2024/01/06 09:38:28;;;;;;;4.40;2.00;;;;;;;3.98;100.00;96433.38;4974689;28;20050;-63
2024/01/06 09:40:55;;;;;;;5.03;3.00;;;;;;;3.99;100.00;96440.38;4982420;28;20596;-63
2024/01/06 09:43:22;;;;;;;2.97;1.63;;;;;;;3.94;100.00;96440.25;4980898;28;20047;-63
2024/01/06 09:46:01;;;;;;;2.85;1.65;;;;;;;3.92;100.00;96445.03;4980189;28;20573;-63
2024/01/06 09:48:33;;;;;;;3.47;1.70;;;;;;;3.94;100.00;96444.81;4981733;28;20031;-63
2024/01/06 09:51:02;;;;;;;5.43;2.03;;;;;;;3.80;100.00;96455.75;4977480;28;20042;-63
2024/01/06 09:53:36;;;;;;;1.98;1.05;;;;;;;3.75;100.00;96456.44;4978827;28;20057;-63
2024/01/06 09:56:04;;;;;;;2.20;1.30;;;;;;;3.76;100.00;96446.53;4974252;28;20065;-63
2024/01/06 09:58:34;;;;;;;2.80;1.60;;;;;;;3.74;100.00;96456.66;4980310;28;20050;-63
2024/01/06 10:01:01;;;;;;;3.10;1.33;;;;;;;3.66;100.00;96459.66;4979571;28;20050;-63
2024/01/06 10:03:28;;;;;;;4.13;1.80;;;;;;;3.62;100.00;96462.78;4984680;28;20050;-63
2024/01/06 10:05:57;;;;;;;2.55;1.17;;;;;;;3.66;100.00;96452.47;4977582;28;20379;-63
2024/01/06 10:08:26;;;;;;;4.05;1.73;;;;;;;3.62;100.00;96459.31;4981010;28;20053;-62
2024/01/06 10:10:52;;;;;;;1.70;1.23;;;;;;;3.61;100.00;96460.38;4975343;28;20054;-63
2024/01/06 10:13:19;;;;;;;3.25;1.80;;;;;;;3.68;100.00;96469.09;4983599;28;20046;-63
2024/01/06 10:15:46;;;;;;;3.47;1.80;;;;;;;3.69;100.00;96462.69;4963299;28;20816;-63
2024/01/06 10:18:13;;;;;;;4.10;1.60;;;;;;;3.67;100.00;96461.28;4975972;28;20141;-63
2024/01/06 10:20:40;;;;;;;4.75;1.40;;;;;;;3.75;100.00;96456.44;4974906;28;20046;-63
2024/01/06 10:23:06;;;;;;;4.50;1.90;;;;;;;3.75;100.00;96455.59;4968210;28;20043;-63
2024/01/06 10:25:34;;;;;;;2.55;1.50;;;;;;;3.77;100.00;96461.56;4979922;28;20077;-63
2024/01/06 10:28:04;;;;;;;2.85;1.63;;;;;;;3.64;100.00;96460.72;4983222;28;20053;-63
2024/01/06 10:30:30;;;;;;;4.68;1.73;;;;;;;3.62;100.00;96459.31;4983149;28;20041;-63
2024/01/06 10:32:57;;;;;;;4.63;2.45;;;;;;;3.67;100.00;96456.75;4981912;28;20050;-63
2024/01/06 10:35:27;;;;;;;4.68;2.00;;;;;;;3.64;100.00;96457.22;4984009;28;20038;-63
2024/01/06 10:37:54;;;;;;;4.63;2.00;;;;;;;3.65;100.00;96461.53;4982703;28;20065;-63
2024/01/06 10:40:20;;;;;;;3.78;2.25;;;;;;;3.66;100.00;96452.47;4983339;28;20041;-63
2024/01/06 10:42:47;;;;;;;5.10;2.15;;;;;;;3.65;100.00;96456.19;4982880;28;20046;-63
2024/01/06 10:45:14;;;;;;;3.90;1.75;;;;;;;3.66;100.00;96470.38;4982068;28;20845;-64
2024/01/06 10:47:43;;;;;;;3.88;2.50;;;;;;;3.64;100.00;96463.41;4982303;28;20042;-63
2024/01/06 10:50:10;;;;;;;5.60;2.00;;;;;;;3.56;100.00;96458.38;4982206;28;20046;-63
2024/01/06 10:52:38;;;;;;;4.32;2.28;;;;;;;3.55;100.00;96461.28;4976269;28;20062;-63
2024/01/06 10:55:05;;;;;;;4.00;2.05;;;;;;;3.40;100.00;96461.69;4981023;28;20046;-63
2024/01/06 10:57:33;;;;;;;5.38;2.03;;;;;;;3.51;100.00;96466.28;4976234;28;20137;-63
2024/01/06 11:00:00;;;;;;;4.53;2.35;;;;;;;3.53;100.00;96458.03;4981064;28;20054;-63
2024/01/06 11:02:27;;;;;;;4.38;2.50;;;;;;;3.45;100.00;96465.31;4978884;28;20057;-63
2024/01/06 11:04:54;;;;;;;6.03;3.28;;;;;;;3.44;100.00;96455.69;4968509;28;20046;-63
2024/01/06 11:07:23;;;;;;;5.90;3.72;;;;;;;3.54;100.00;96459.66;4959496;28;20057;-63
2024/01/06 11:10:05;;;;;;;5.50;2.58;;;;;;;3.56;100.00;96452.19;4978297;28;20325;-63
2024/01/06 11:12:33;;;;;;;4.40;2.67;;;;;;;3.55;100.00;96458.59;4977315;28;20100;-63
2024/01/06 11:14:59;;;;;;;6.85;2.50;;;;;;;3.57;100.00;96461.88;4981984;28;20062;-63
2024/01/06 11:17:55;;;;;;;6.82;2.80;;;;;;;3.57;100.00;96453.84;4979942;28;20046;-63
2024/01/06 11:20:22;;;;;;;4.07;2.30;;;;;;;3.55;100.00;96451.41;4975469;28;20538;-63
2024/01/06 11:22:50;;;;;;;5.55;2.72;;;;;;;3.56;100.00;96458.38;4969878;28;20061;-63
2024/01/06 11:25:19;;;;;;;3.67;2.35;;;;;;;3.71;100.00;96449.91;4970329;28;20050;-63
2024/01/06 11:27:48;;;;;;;4.70;2.65;;;;;;;3.86;100.00;96445.94;4980003;28;20121;-63
2024/01/06 11:30:29;;;;;;;5.30;3.40;;;;;;;3.80;100.00;96453.06;4982170;28;20075;-63
2024/01/06 11:32:58;;;;;;;5.93;3.00;;;;;;;4.03;100.00;96443.41;4979662;28;20129;-63